sensor_id;sensor_type;location;lat;lon;timestamp;pressure;altitude;pressure_sealevel;temperature
23208;BMP180;11773;52.570;13.052;2023-12-20T00:01:44;100633.00;;;13.50
23208;BMP180;11773;52.570;13.052;2023-12-20T00:04:13;100618.00;;;13.50
23208;BMP180;11773;52.570;13.052;2023-12-20T00:06:43;100631.00;;;13.50
23208;BMP180;11773;52.570;13.052;2023-12-20T00:09:12;100620.00;;;13.50
23208;BMP180;11773;52.570;13.052;2023-12-20T00:11:42;100626.00;;;13.50
23208;BMP180;11773;52.570;13.052;2023-12-20T00:14:12;100610.00;;;13.50
23208;BMP180;11773;52.570;13.052;2023-12-20T00:16:41;100608.00;;;13.50
23208;BMP180;11773;52.570;13.052;2023-12-20T00:19:11;100620.00;;;13.50
23208;BMP180;11773;52.570;13.052;2023-12-20T00:21:41;100596.00;;;13.50
23208;BMP180;11773;52.570;13.052;2023-12-20T00:24:11;100603.00;;;13.50
23208;BMP180;11773;52.570;13.052;2023-12-20T00:26:40;100603.00;;;13.50
23208;BMP180;11773;52.570;13.052;2023-12-20T00:29:11;100608.00;;;13.50
23208;BMP180;11773;52.570;13.052;2023-12-20T00:31:40;100596.00;;;13.50
23208;BMP180;11773;52.570;13.052;2023-12-20T00:34:10;100596.00;;;13.50
23208;BMP180;11773;52.570;13.052;2023-12-20T00:36:40;100596.00;;;13.50
23208;BMP180;11773;52.570;13.052;2023-12-20T00:39:15;100595.00;;;13.50
23208;BMP180;11773;52.570;13.052;2023-12-20T00:41:44;100604.00;;;13.50
23208;BMP180;11773;52.570;13.052;2023-12-20T00:44:14;100598.00;;;13.50
23208;BMP180;11773;52.570;13.052;2023-12-20T00:46:44;100612.00;;;13.50
23208;BMP180;11773;52.570;13.052;2023-12-20T00:49:13;100600.00;;;13.50
23208;BMP180;11773;52.570;13.052;2023-12-20T00:51:43;100598.00;;;13.50
23208;BMP180;11773;52.570;13.052;2023-12-20T00:54:13;100611.00;;;13.50
23208;BMP180;11773;52.570;13.052;2023-12-20T00:56:42;100600.00;;;13.50
23208;BMP180;11773;52.570;13.052;2023-12-20T00:59:12;100605.00;;;13.50
23208;BMP180;11773;52.570;13.052;2023-12-20T01:01:41;100603.00;;;13.50
23208;BMP180;11773;52.570;13.052;2023-12-20T01:04:11;100592.00;;;13.50
23208;BMP180;11773;52.570;13.052;2023-12-20T01:06:41;100605.00;;;13.50
23208;BMP180;11773;52.570;13.052;2023-12-20T01:09:10;100623.00;;;13.50
23208;BMP180;11773;52.570;13.052;2023-12-20T01:11:40;100626.00;;;13.50
23208;BMP180;11773;52.570;13.052;2023-12-20T01:14:09;100615.00;;;13.50
23208;BMP180;11773;52.570;13.052;2023-12-20T01:16:39;100619.00;;;13.50
23208;BMP180;11773;52.570;13.052;2023-12-20T01:19:08;100621.00;;;13.50
23208;BMP180;11773;52.570;13.052;2023-12-20T01:21:41;100621.00;;;13.50
23208;BMP180;11773;52.570;13.052;2023-12-20T01:24:11;100614.00;;;13.50
23208;BMP180;11773;52.570;13.052;2023-12-20T01:26:40;100610.00;;;13.50
23208;BMP180;11773;52.570;13.052;2023-12-20T01:29:10;100628.00;;;13.50
23208;BMP180;11773;52.570;13.052;2023-12-20T01:31:41;100617.00;;;13.50
23208;BMP180;11773;52.570;13.052;2023-12-20T01:34:11;100628.00;;;13.50
23208;BMP180;11773;52.570;13.052;2023-12-20T01:36:42;100619.00;;;13.50
23208;BMP180;11773;52.570;13.052;2023-12-20T01:39:11;100616.00;;;13.50
23208;BMP180;11773;52.570;13.052;2023-12-20T01:41:43;100613.00;;;13.50
23208;BMP180;11773;52.570;13.052;2023-12-20T01:44:13;100610.00;;;13.50
23208;BMP180;11773;52.570;13.052;2023-12-20T01:46:43;100619.00;;;13.50
23208;BMP180;11773;52.570;13.052;2023-12-20T01:49:14;100598.00;;;13.50
23208;BMP180;11773;52.570;13.052;2023-12-20T01:51:45;100623.00;;;13.50
23208;BMP180;11773;52.570;13.052;2023-12-20T01:54:15;100611.00;;;13.40
23208;BMP180;11773;52.570;13.052;2023-12-20T01:56:45;100620.00;;;13.50
23208;BMP180;11773;52.570;13.052;2023-12-20T01:59:15;100604.00;;;13.40
23208;BMP180;11773;52.570;13.052;2023-12-20T02:01:45;100618.00;;;13.50
23208;BMP180;11773;52.570;13.052;2023-12-20T02:04:15;100610.00;;;13.50
23208;BMP180;11773;52.570;13.052;2023-12-20T02:06:46;100594.00;;;13.50
23208;BMP180;11773;52.570;13.052;2023-12-20T02:09:16;100590.00;;;13.50
23208;BMP180;11773;52.570;13.052;2023-12-20T02:11:46;100600.00;;;13.50
23208;BMP180;11773;52.570;13.052;2023-12-20T02:14:15;100587.00;;;13.50
23208;BMP180;11773;52.570;13.052;2023-12-20T02:16:45;100592.00;;;13.50
23208;BMP180;11773;52.570;13.052;2023-12-20T02:19:15;100591.00;;;13.50
23208;BMP180;11773;52.570;13.052;2023-12-20T02:21:47;100580.00;;;13.50
23208;BMP180;11773;52.570;13.052;2023-12-20T02:24:16;100593.00;;;13.50
23208;BMP180;11773;52.570;13.052;2023-12-20T02:26:46;100587.00;;;13.50
23208;BMP180;11773;52.570;13.052;2023-12-20T02:29:15;100600.00;;;13.50
23208;BMP180;11773;52.570;13.052;2023-12-20T02:31:45;100594.00;;;13.50
23208;BMP180;11773;52.570;13.052;2023-12-20T02:34:15;100593.00;;;13.50
23208;BMP180;11773;52.570;13.052;2023-12-20T02:36:45;100600.00;;;13.50
23208;BMP180;11773;52.570;13.052;2023-12-20T02:39:15;100596.00;;;13.50
23208;BMP180;11773;52.570;13.052;2023-12-20T02:41:45;100592.00;;;13.50
23208;BMP180;11773;52.570;13.052;2023-12-20T02:44:14;100608.00;;;13.50
23208;BMP180;11773;52.570;13.052;2023-12-20T02:46:44;100594.00;;;13.50
23208;BMP180;11773;52.570;13.052;2023-12-20T02:49:14;100587.00;;;13.50
23208;BMP180;11773;52.570;13.052;2023-12-20T02:51:43;100583.00;;;13.50
23208;BMP180;11773;52.570;13.052;2023-12-20T02:54:13;100586.00;;;13.40
23208;BMP180;11773;52.570;13.052;2023-12-20T02:56:43;100595.00;;;13.40
23208;BMP180;11773;52.570;13.052;2023-12-20T02:59:12;100589.00;;;13.40
23208;BMP180;11773;52.570;13.052;2023-12-20T03:01:46;100587.00;;;13.40
23208;BMP180;11773;52.570;13.052;2023-12-20T03:04:16;100594.00;;;13.40
23208;BMP180;11773;52.570;13.052;2023-12-20T03:06:46;100594.00;;;13.40
23208;BMP180;11773;52.570;13.052;2023-12-20T03:09:16;100607.00;;;13.40
23208;BMP180;11773;52.570;13.052;2023-12-20T03:11:45;100597.00;;;13.40
23208;BMP180;11773;52.570;13.052;2023-12-20T03:14:15;100601.00;;;13.40
23208;BMP180;11773;52.570;13.052;2023-12-20T03:16:52;100606.00;;;13.40
23208;BMP180;11773;52.570;13.052;2023-12-20T03:19:22;100629.00;;;13.30
23208;BMP180;11773;52.570;13.052;2023-12-20T03:21:51;100604.00;;;13.30
23208;BMP180;11773;52.570;13.052;2023-12-20T03:24:22;100618.00;;;13.30
23208;BMP180;11773;52.570;13.052;2023-12-20T03:26:51;100604.00;;;13.30
23208;BMP180;11773;52.570;13.052;2023-12-20T03:29:21;100610.00;;;13.30
23208;BMP180;11773;52.570;13.052;2023-12-20T03:31:51;100609.00;;;13.30
23208;BMP180;11773;52.570;13.052;2023-12-20T03:34:20;100603.00;;;13.30
23208;BMP180;11773;52.570;13.052;2023-12-20T03:36:50;100595.00;;;13.30
23208;BMP180;11773;52.570;13.052;2023-12-20T03:39:20;100597.00;;;13.30
23208;BMP180;11773;52.570;13.052;2023-12-20T03:41:49;100589.00;;;13.30
23208;BMP180;11773;52.570;13.052;2023-12-20T03:44:19;100587.00;;;13.20
23208;BMP180;11773;52.570;13.052;2023-12-20T03:46:49;100588.00;;;13.20
23208;BMP180;11773;52.570;13.052;2023-12-20T03:49:18;100597.00;;;13.20
23208;BMP180;11773;52.570;13.052;2023-12-20T03:51:48;100594.00;;;13.20
23208;BMP180;11773;52.570;13.052;2023-12-20T03:54:17;100583.00;;;13.20
23208;BMP180;11773;52.570;13.052;2023-12-20T03:56:47;100582.00;;;13.20
23208;BMP180;11773;52.570;13.052;2023-12-20T03:59:18;100576.00;;;13.20
23208;BMP180;11773;52.570;13.052;2023-12-20T04:01:48;100583.00;;;13.20
23208;BMP180;11773;52.570;13.052;2023-12-20T04:04:17;100570.00;;;13.20
23208;BMP180;11773;52.570;13.052;2023-12-20T04:06:47;100562.00;;;13.20
23208;BMP180;11773;52.570;13.052;2023-12-20T04:09:18;100559.00;;;13.20
23208;BMP180;11773;52.570;13.052;2023-12-20T04:11:47;100559.00;;;13.20
23208;BMP180;11773;52.570;13.052;2023-12-20T04:14:17;100556.00;;;13.20
23208;BMP180;11773;52.570;13.052;2023-12-20T04:16:46;100559.00;;;13.10
23208;BMP180;11773;52.570;13.052;2023-12-20T04:19:16;100565.00;;;13.10
23208;BMP180;11773;52.570;13.052;2023-12-20T04:21:46;100570.00;;;13.10
23208;BMP180;11773;52.570;13.052;2023-12-20T04:24:15;100561.00;;;13.10
23208;BMP180;11773;52.570;13.052;2023-12-20T04:26:45;100569.00;;;13.10
23208;BMP180;11773;52.570;13.052;2023-12-20T04:29:15;100568.00;;;13.10
23208;BMP180;11773;52.570;13.052;2023-12-20T04:31:45;100558.00;;;13.10
23208;BMP180;11773;52.570;13.052;2023-12-20T04:34:14;100571.00;;;13.10
23208;BMP180;11773;52.570;13.052;2023-12-20T04:36:45;100562.00;;;13.10
23208;BMP180;11773;52.570;13.052;2023-12-20T04:39:15;100565.00;;;13.10
23208;BMP180;11773;52.570;13.052;2023-12-20T04:41:44;100561.00;;;13.10
23208;BMP180;11773;52.570;13.052;2023-12-20T04:44:16;100562.00;;;13.10
23208;BMP180;11773;52.570;13.052;2023-12-20T04:46:45;100569.00;;;13.00
23208;BMP180;11773;52.570;13.052;2023-12-20T04:49:15;100566.00;;;13.00
23208;BMP180;11773;52.570;13.052;2023-12-20T04:51:44;100551.00;;;13.00
23208;BMP180;11773;52.570;13.052;2023-12-20T04:54:14;100551.00;;;13.00
23208;BMP180;11773;52.570;13.052;2023-12-20T04:56:44;100552.00;;;12.90
23208;BMP180;11773;52.570;13.052;2023-12-20T04:59:13;100550.00;;;12.90
23208;BMP180;11773;52.570;13.052;2023-12-20T05:01:43;100568.00;;;12.90
23208;BMP180;11773;52.570;13.052;2023-12-20T05:04:13;100558.00;;;12.90
23208;BMP180;11773;52.570;13.052;2023-12-20T05:06:42;100554.00;;;12.90
23208;BMP180;11773;52.570;13.052;2023-12-20T05:09:12;100549.00;;;12.80
23208;BMP180;11773;52.570;13.052;2023-12-20T05:11:42;100561.00;;;12.80
23208;BMP180;11773;52.570;13.052;2023-12-20T05:14:11;100561.00;;;12.80
23208;BMP180;11773;52.570;13.052;2023-12-20T05:16:41;100553.00;;;12.70
23208;BMP180;11773;52.570;13.052;2023-12-20T05:19:10;100565.00;;;12.70
23208;BMP180;11773;52.570;13.052;2023-12-20T05:21:40;100561.00;;;12.70
23208;BMP180;11773;52.570;13.052;2023-12-20T05:24:10;100560.00;;;12.70
23208;BMP180;11773;52.570;13.052;2023-12-20T05:26:39;100555.00;;;12.70
23208;BMP180;11773;52.570;13.052;2023-12-20T05:29:09;100571.00;;;12.60
23208;BMP180;11773;52.570;13.052;2023-12-20T05:31:39;100569.00;;;12.60
23208;BMP180;11773;52.570;13.052;2023-12-20T05:34:08;100562.00;;;12.60
23208;BMP180;11773;52.570;13.052;2023-12-20T05:36:38;100550.00;;;12.60
23208;BMP180;11773;52.570;13.052;2023-12-20T05:39:08;100560.00;;;12.50
23208;BMP180;11773;52.570;13.052;2023-12-20T05:41:38;100561.00;;;12.50
23208;BMP180;11773;52.570;13.052;2023-12-20T05:44:07;100550.00;;;12.50
23208;BMP180;11773;52.570;13.052;2023-12-20T05:46:39;100539.00;;;12.40
23208;BMP180;11773;52.570;13.052;2023-12-20T05:49:08;100538.00;;;12.40
23208;BMP180;11773;52.570;13.052;2023-12-20T05:51:39;100538.00;;;12.40
23208;BMP180;11773;52.570;13.052;2023-12-20T05:54:09;100546.00;;;12.40
23208;BMP180;11773;52.570;13.052;2023-12-20T05:56:39;100548.00;;;12.30
23208;BMP180;11773;52.570;13.052;2023-12-20T05:59:09;100541.00;;;12.30
23208;BMP180;11773;52.570;13.052;2023-12-20T06:01:39;100529.00;;;12.30
23208;BMP180;11773;52.570;13.052;2023-12-20T06:04:08;100531.00;;;12.30
23208;BMP180;11773;52.570;13.052;2023-12-20T06:06:42;100524.00;;;12.30
23208;BMP180;11773;52.570;13.052;2023-12-20T06:09:12;100538.00;;;12.30
23208;BMP180;11773;52.570;13.052;2023-12-20T06:11:43;100521.00;;;12.20
23208;BMP180;11773;52.570;13.052;2023-12-20T06:14:13;100526.00;;;12.20
23208;BMP180;11773;52.570;13.052;2023-12-20T06:16:42;100550.00;;;12.20
23208;BMP180;11773;52.570;13.052;2023-12-20T06:19:13;100535.00;;;12.20
23208;BMP180;11773;52.570;13.052;2023-12-20T06:21:43;100535.00;;;12.20
23208;BMP180;11773;52.570;13.052;2023-12-20T06:24:13;100516.00;;;12.20
23208;BMP180;11773;52.570;13.052;2023-12-20T06:26:42;100534.00;;;12.20
23208;BMP180;11773;52.570;13.052;2023-12-20T06:29:13;100527.00;;;12.20
23208;BMP180;11773;52.570;13.052;2023-12-20T06:31:42;100530.00;;;12.20
23208;BMP180;11773;52.570;13.052;2023-12-20T06:34:12;100537.00;;;12.10
23208;BMP180;11773;52.570;13.052;2023-12-20T06:36:42;100533.00;;;12.10
23208;BMP180;11773;52.570;13.052;2023-12-20T06:39:11;100523.00;;;12.10
23208;BMP180;11773;52.570;13.052;2023-12-20T06:41:42;100542.00;;;12.10
23208;BMP180;11773;52.570;13.052;2023-12-20T06:44:11;100518.00;;;12.10
23208;BMP180;11773;52.570;13.052;2023-12-20T06:46:41;100514.00;;;12.10
23208;BMP180;11773;52.570;13.052;2023-12-20T06:49:11;100520.00;;;12.10
23208;BMP180;11773;52.570;13.052;2023-12-20T06:51:40;100516.00;;;12.10
23208;BMP180;11773;52.570;13.052;2023-12-20T06:54:10;100522.00;;;12.10
23208;BMP180;11773;52.570;13.052;2023-12-20T06:56:40;100518.00;;;12.10
23208;BMP180;11773;52.570;13.052;2023-12-20T06:59:09;100513.00;;;12.10
23208;BMP180;11773;52.570;13.052;2023-12-20T07:01:39;100520.00;;;12.00
23208;BMP180;11773;52.570;13.052;2023-12-20T07:04:09;100506.00;;;12.00
23208;BMP180;11773;52.570;13.052;2023-12-20T07:06:39;100523.00;;;12.00
23208;BMP180;11773;52.570;13.052;2023-12-20T07:09:09;100498.00;;;12.00
23208;BMP180;11773;52.570;13.052;2023-12-20T07:11:39;100494.00;;;12.00
23208;BMP180;11773;52.570;13.052;2023-12-20T07:14:08;100499.00;;;12.00
23208;BMP180;11773;52.570;13.052;2023-12-20T07:16:38;100500.00;;;12.00
23208;BMP180;11773;52.570;13.052;2023-12-20T07:19:08;100501.00;;;11.90
23208;BMP180;11773;52.570;13.052;2023-12-20T07:21:38;100505.00;;;11.90
23208;BMP180;11773;52.570;13.052;2023-12-20T07:24:08;100501.00;;;11.90
23208;BMP180;11773;52.570;13.052;2023-12-20T07:26:37;100489.00;;;11.90
23208;BMP180;11773;52.570;13.052;2023-12-20T07:29:07;100490.00;;;11.90
23208;BMP180;11773;52.570;13.052;2023-12-20T07:31:37;100511.00;;;11.90
23208;BMP180;11773;52.570;13.052;2023-12-20T07:34:07;100501.00;;;11.90
23208;BMP180;11773;52.570;13.052;2023-12-20T07:36:37;100488.00;;;11.90
23208;BMP180;11773;52.570;13.052;2023-12-20T07:39:06;100496.00;;;11.90
23208;BMP180;11773;52.570;13.052;2023-12-20T07:41:36;100484.00;;;11.90
23208;BMP180;11773;52.570;13.052;2023-12-20T07:44:07;100491.00;;;11.80
23208;BMP180;11773;52.570;13.052;2023-12-20T07:46:36;100492.00;;;11.80
23208;BMP180;11773;52.570;13.052;2023-12-20T07:49:06;100494.00;;;11.90
23208;BMP180;11773;52.570;13.052;2023-12-20T07:51:37;100492.00;;;11.80
23208;BMP180;11773;52.570;13.052;2023-12-20T07:54:07;100490.00;;;11.80
23208;BMP180;11773;52.570;13.052;2023-12-20T07:56:36;100497.00;;;11.80
23208;BMP180;11773;52.570;13.052;2023-12-20T07:59:08;100503.00;;;11.80
23208;BMP180;11773;52.570;13.052;2023-12-20T08:01:39;100494.00;;;11.80
23208;BMP180;11773;52.570;13.052;2023-12-20T08:04:09;100489.00;;;11.80
23208;BMP180;11773;52.570;13.052;2023-12-20T08:06:39;100505.00;;;11.80
23208;BMP180;11773;52.570;13.052;2023-12-20T08:09:08;100496.00;;;11.80
23208;BMP180;11773;52.570;13.052;2023-12-20T08:11:39;100492.00;;;11.80
23208;BMP180;11773;52.570;13.052;2023-12-20T08:14:08;100493.00;;;11.80
23208;BMP180;11773;52.570;13.052;2023-12-20T08:16:38;100509.00;;;11.80
23208;BMP180;11773;52.570;13.052;2023-12-20T08:19:08;100497.00;;;11.80
23208;BMP180;11773;52.570;13.052;2023-12-20T08:21:37;100507.00;;;11.80
23208;BMP180;11773;52.570;13.052;2023-12-20T08:24:07;100496.00;;;11.80
23208;BMP180;11773;52.570;13.052;2023-12-20T08:26:37;100483.00;;;11.80
23208;BMP180;11773;52.570;13.052;2023-12-20T08:29:07;100485.00;;;11.80
23208;BMP180;11773;52.570;13.052;2023-12-20T08:31:36;100474.00;;;11.80
23208;BMP180;11773;52.570;13.052;2023-12-20T08:34:06;100472.00;;;11.80
23208;BMP180;11773;52.570;13.052;2023-12-20T08:36:36;100477.00;;;11.80
23208;BMP180;11773;52.570;13.052;2023-12-20T08:39:06;100479.00;;;11.80
23208;BMP180;11773;52.570;13.052;2023-12-20T08:41:36;100476.00;;;11.80
23208;BMP180;11773;52.570;13.052;2023-12-20T08:44:06;100478.00;;;11.80
23208;BMP180;11773;52.570;13.052;2023-12-20T08:46:36;100476.00;;;11.80
23208;BMP180;11773;52.570;13.052;2023-12-20T08:49:05;100473.00;;;11.80
23208;BMP180;11773;52.570;13.052;2023-12-20T08:51:37;100491.00;;;11.90
23208;BMP180;11773;52.570;13.052;2023-12-20T08:54:09;100485.00;;;11.90
23208;BMP180;11773;52.570;13.052;2023-12-20T08:56:38;100480.00;;;11.80
23208;BMP180;11773;52.570;13.052;2023-12-20T08:59:08;100467.00;;;11.80
23208;BMP180;11773;52.570;13.052;2023-12-20T09:01:38;100472.00;;;11.80
23208;BMP180;11773;52.570;13.052;2023-12-20T09:04:07;100467.00;;;11.80
23208;BMP180;11773;52.570;13.052;2023-12-20T09:06:37;100459.00;;;11.90
23208;BMP180;11773;52.570;13.052;2023-12-20T09:09:07;100463.00;;;11.90
23208;BMP180;11773;52.570;13.052;2023-12-20T09:11:40;100465.00;;;11.90
23208;BMP180;11773;52.570;13.052;2023-12-20T09:14:10;100466.00;;;11.90
23208;BMP180;11773;52.570;13.052;2023-12-20T09:16:39;100465.00;;;11.90
23208;BMP180;11773;52.570;13.052;2023-12-20T09:19:09;100470.00;;;11.90
23208;BMP180;11773;52.570;13.052;2023-12-20T09:21:39;100456.00;;;11.90
23208;BMP180;11773;52.570;13.052;2023-12-20T09:24:09;100466.00;;;11.90
23208;BMP180;11773;52.570;13.052;2023-12-20T09:26:39;100465.00;;;11.90
23208;BMP180;11773;52.570;13.052;2023-12-20T09:29:10;100456.00;;;11.90
23208;BMP180;11773;52.570;13.052;2023-12-20T09:31:41;100460.00;;;11.90
23208;BMP180;11773;52.570;13.052;2023-12-20T09:34:14;100461.00;;;12.00
23208;BMP180;11773;52.570;13.052;2023-12-20T09:36:43;100452.00;;;12.00
23208;BMP180;11773;52.570;13.052;2023-12-20T09:39:17;100454.00;;;12.00
23208;BMP180;11773;52.570;13.052;2023-12-20T09:42:05;100456.00;;;12.00
23208;BMP180;11773;52.570;13.052;2023-12-20T09:44:35;100456.00;;;12.00
23208;BMP180;11773;52.570;13.052;2023-12-20T09:47:05;100440.00;;;12.00
23208;BMP180;11773;52.570;13.052;2023-12-20T09:49:37;100447.00;;;12.00
23208;BMP180;11773;52.570;13.052;2023-12-20T09:52:09;100442.00;;;12.00
23208;BMP180;11773;52.570;13.052;2023-12-20T09:54:40;100436.00;;;12.00
23208;BMP180;11773;52.570;13.052;2023-12-20T09:57:10;100454.00;;;12.00
23208;BMP180;11773;52.570;13.052;2023-12-20T09:59:41;100433.00;;;12.00
23208;BMP180;11773;52.570;13.052;2023-12-20T10:02:13;100444.00;;;12.00
23208;BMP180;11773;52.570;13.052;2023-12-20T10:04:48;100430.00;;;12.00
23208;BMP180;11773;52.570;13.052;2023-12-20T10:07:18;100440.00;;;12.10
23208;BMP180;11773;52.570;13.052;2023-12-20T10:09:51;100420.00;;;12.10
23208;BMP180;11773;52.570;13.052;2023-12-20T10:12:21;100424.00;;;12.10
23208;BMP180;11773;52.570;13.052;2023-12-20T10:14:51;100403.00;;;12.10
23208;BMP180;11773;52.570;13.052;2023-12-20T10:17:22;100410.00;;;12.10
23208;BMP180;11773;52.570;13.052;2023-12-20T10:19:53;100411.00;;;12.10
23208;BMP180;11773;52.570;13.052;2023-12-20T10:22:23;100421.00;;;12.10
23208;BMP180;11773;52.570;13.052;2023-12-20T10:24:52;100396.00;;;12.10
23208;BMP180;11773;52.570;13.052;2023-12-20T10:27:22;100381.00;;;12.10
23208;BMP180;11773;52.570;13.052;2023-12-20T10:29:52;100377.00;;;12.20
23208;BMP180;11773;52.570;13.052;2023-12-20T10:32:27;100384.00;;;12.20
23208;BMP180;11773;52.570;13.052;2023-12-20T10:34:57;100374.00;;;12.20
23208;BMP180;11773;52.570;13.052;2023-12-20T10:37:28;100363.00;;;12.20
23208;BMP180;11773;52.570;13.052;2023-12-20T10:40:00;100364.00;;;12.20
23208;BMP180;11773;52.570;13.052;2023-12-20T10:42:32;100360.00;;;12.20
23208;BMP180;11773;52.570;13.052;2023-12-20T10:45:02;100356.00;;;12.20
23208;BMP180;11773;52.570;13.052;2023-12-20T10:47:33;100354.00;;;12.20
23208;BMP180;11773;52.570;13.052;2023-12-20T10:50:08;100353.00;;;12.20
23208;BMP180;11773;52.570;13.052;2023-12-20T10:52:39;100341.00;;;12.20
23208;BMP180;11773;52.570;13.052;2023-12-20T10:55:09;100338.00;;;12.20
23208;BMP180;11773;52.570;13.052;2023-12-20T10:57:40;100351.00;;;12.20
23208;BMP180;11773;52.570;13.052;2023-12-20T11:00:14;100339.00;;;12.20
23208;BMP180;11773;52.570;13.052;2023-12-20T11:02:45;100326.00;;;12.20
23208;BMP180;11773;52.570;13.052;2023-12-20T11:05:36;100311.00;;;12.20
23208;BMP180;11773;52.570;13.052;2023-12-20T11:08:32;100313.00;;;12.20
23208;BMP180;11773;52.570;13.052;2023-12-20T11:11:37;100325.00;;;12.20
23208;BMP180;11773;52.570;13.052;2023-12-20T11:14:22;100300.00;;;12.10
23208;BMP180;11773;52.570;13.052;2023-12-20T11:17:08;100291.00;;;12.10
23208;BMP180;11773;52.570;13.052;2023-12-20T11:22:34;100288.00;;;12.20
23208;BMP180;11773;52.570;13.052;2023-12-20T11:25:08;100294.00;;;12.20
23208;BMP180;11773;52.570;13.052;2023-12-20T11:27:42;100275.00;;;12.20
23208;BMP180;11773;52.570;13.052;2023-12-20T11:30:15;100268.00;;;12.30
23208;BMP180;11773;52.570;13.052;2023-12-20T11:32:47;100278.00;;;12.30
23208;BMP180;11773;52.570;13.052;2023-12-20T11:35:19;100269.00;;;12.30
23208;BMP180;11773;52.570;13.052;2023-12-20T11:37:49;100255.00;;;12.30
23208;BMP180;11773;52.570;13.052;2023-12-20T11:40:19;100255.00;;;12.30
23208;BMP180;11773;52.570;13.052;2023-12-20T11:42:51;100253.00;;;12.30
23208;BMP180;11773;52.570;13.052;2023-12-20T11:45:25;100249.00;;;12.30
23208;BMP180;11773;52.570;13.052;2023-12-20T11:47:57;100228.00;;;12.30
23208;BMP180;11773;52.570;13.052;2023-12-20T11:50:27;100225.00;;;12.30
23208;BMP180;11773;52.570;13.052;2023-12-20T11:52:59;100213.00;;;12.30
23208;BMP180;11773;52.570;13.052;2023-12-20T11:55:28;100210.00;;;12.40
23208;BMP180;11773;52.570;13.052;2023-12-20T11:57:58;100197.00;;;12.40
23208;BMP180;11773;52.570;13.052;2023-12-20T12:00:28;100187.00;;;12.40
23208;BMP180;11773;52.570;13.052;2023-12-20T12:02:59;100201.00;;;12.40
23208;BMP180;11773;52.570;13.052;2023-12-20T12:05:31;100187.00;;;12.40
23208;BMP180;11773;52.570;13.052;2023-12-20T12:08:03;100185.00;;;12.40
23208;BMP180;11773;52.570;13.052;2023-12-20T12:10:34;100173.00;;;12.40
23208;BMP180;11773;52.570;13.052;2023-12-20T12:13:03;100178.00;;;12.50
23208;BMP180;11773;52.570;13.052;2023-12-20T12:15:33;100163.00;;;12.50
23208;BMP180;11773;52.570;13.052;2023-12-20T12:18:04;100171.00;;;12.50
23208;BMP180;11773;52.570;13.052;2023-12-20T12:20:33;100169.00;;;12.40
23208;BMP180;11773;52.570;13.052;2023-12-20T12:23:06;100173.00;;;12.50
23208;BMP180;11773;52.570;13.052;2023-12-20T12:25:36;100157.00;;;12.40
23208;BMP180;11773;52.570;13.052;2023-12-20T12:28:08;100159.00;;;12.40
23208;BMP180;11773;52.570;13.052;2023-12-20T12:30:37;100164.00;;;12.40
23208;BMP180;11773;52.570;13.052;2023-12-20T12:33:08;100155.00;;;12.40
23208;BMP180;11773;52.570;13.052;2023-12-20T12:35:38;100145.00;;;12.40
23208;BMP180;11773;52.570;13.052;2023-12-20T12:38:09;100133.00;;;12.40
23208;BMP180;11773;52.570;13.052;2023-12-20T12:40:40;100126.00;;;12.40
23208;BMP180;11773;52.570;13.052;2023-12-20T12:43:11;100131.00;;;12.50
23208;BMP180;11773;52.570;13.052;2023-12-20T12:45:41;100105.00;;;12.40
23208;BMP180;11773;52.570;13.052;2023-12-20T12:48:12;100102.00;;;12.40
23208;BMP180;11773;52.570;13.052;2023-12-20T12:50:41;100136.00;;;12.40
23208;BMP180;11773;52.570;13.052;2023-12-20T12:53:11;100144.00;;;12.40
23208;BMP180;11773;52.570;13.052;2023-12-20T12:55:41;100158.00;;;12.40
23208;BMP180;11773;52.570;13.052;2023-12-20T12:58:11;100166.00;;;12.40
23208;BMP180;11773;52.570;13.052;2023-12-20T13:00:41;100168.00;;;12.40
23208;BMP180;11773;52.570;13.052;2023-12-20T13:03:10;100193.00;;;12.40
23208;BMP180;11773;52.570;13.052;2023-12-20T13:05:40;100186.00;;;12.40
23208;BMP180;11773;52.570;13.052;2023-12-20T13:08:12;100194.00;;;12.30
23208;BMP180;11773;52.570;13.052;2023-12-20T13:10:42;100193.00;;;12.30
23208;BMP180;11773;52.570;13.052;2023-12-20T13:13:11;100188.00;;;12.30
23208;BMP180;11773;52.570;13.052;2023-12-20T13:15:41;100178.00;;;12.20
23208;BMP180;11773;52.570;13.052;2023-12-20T13:18:11;100168.00;;;12.20
23208;BMP180;11773;52.570;13.052;2023-12-20T13:20:40;100167.00;;;12.20
23208;BMP180;11773;52.570;13.052;2023-12-20T13:23:10;100163.00;;;12.20
23208;BMP180;11773;52.570;13.052;2023-12-20T13:25:41;100157.00;;;12.20
23208;BMP180;11773;52.570;13.052;2023-12-20T13:28:11;100161.00;;;12.20
23208;BMP180;11773;52.570;13.052;2023-12-20T13:30:41;100143.00;;;12.20
23208;BMP180;11773;52.570;13.052;2023-12-20T13:33:12;100154.00;;;12.20
23208;BMP180;11773;52.570;13.052;2023-12-20T13:35:41;100159.00;;;12.20
23208;BMP180;11773;52.570;13.052;2023-12-20T13:38:13;100156.00;;;12.20
23208;BMP180;11773;52.570;13.052;2023-12-20T13:40:43;100175.00;;;12.20
23208;BMP180;11773;52.570;13.052;2023-12-20T13:43:13;100171.00;;;12.20
23208;BMP180;11773;52.570;13.052;2023-12-20T13:45:42;100171.00;;;12.20
23208;BMP180;11773;52.570;13.052;2023-12-20T13:48:12;100172.00;;;12.20
23208;BMP180;11773;52.570;13.052;2023-12-20T13:50:42;100177.00;;;12.20
23208;BMP180;11773;52.570;13.052;2023-12-20T13:53:12;100177.00;;;12.20
23208;BMP180;11773;52.570;13.052;2023-12-20T13:55:42;100186.00;;;12.20
23208;BMP180;11773;52.570;13.052;2023-12-20T13:58:12;100192.00;;;12.20
23208;BMP180;11773;52.570;13.052;2023-12-20T14:00:41;100187.00;;;12.10
23208;BMP180;11773;52.570;13.052;2023-12-20T14:03:11;100210.00;;;12.10
23208;BMP180;11773;52.570;13.052;2023-12-20T14:05:40;100205.00;;;12.10